Rock Creek, Texas
Current Conditions -  °F | °C
As of 5:51 AM on Saturday 20 Dec 2014 (Local Time) from KACT Reporting Station
Haze Haze  
Wind Chill: 44°   Ceiling: 2100
Heat Index: 47°   Visibility: 6mi
Dew Point: 45°   Wind: 6mph
Humidity: 93%   Direction: 350°N
Pressure: 30.21"   Gusts: NA
Location:  31.618°N, 97.2031°W
Report Text: KACT 201151Z 35005KT 6SM BR FEW007 OVC021 08/07 A3021 RMK AO2 SLP228 70016 T00830072 10089 20083 51002
Loading
Personal Weather Stations






























Interactive Weather Map New forecast layout! Learn more

10-Day Weather Forecast

Advertisements
Track Severe Weather on mobile